createdAt,value
2022-11-25T00:01:19.093Z,99.65
2022-11-25T00:03:47.796Z,99.14
2022-11-25T00:06:16.485Z,98.40
2022-11-25T00:08:45.715Z,98.76
2022-11-25T00:11:14.150Z,98.83
2022-11-25T00:13:42.736Z,98.01
2022-11-25T00:16:13.341Z,97.48
2022-11-25T00:18:44.627Z,97.79
2022-11-25T00:21:15.137Z,96.84
2022-11-25T00:23:42.634Z,96.48
2022-11-25T00:26:14.752Z,96.70
2022-11-25T00:28:45.381Z,97.33
2022-11-25T00:31:19.429Z,98.22
2022-11-25T00:33:47.885Z,99.01
2022-11-25T00:36:42.097Z,98.77
2022-11-25T00:39:15.175Z,99.48
2022-11-25T00:42:02.005Z,99.29
2022-11-25T00:44:35.892Z,99.24
2022-11-25T00:47:07.865Z,99.91
2022-11-25T00:49:36.263Z,100.00
2022-11-25T00:52:04.781Z,100.00
2022-11-25T00:54:32.669Z,99.32
2022-11-25T00:57:00.506Z,99.40
2022-11-25T00:59:30.040Z,99.23
2022-11-25T01:02:00.101Z,100.00
2022-11-25T01:04:27.567Z,100.00
2022-11-25T01:06:56.908Z,99.74
2022-11-25T01:09:24.509Z,99.28
2022-11-25T01:11:52.556Z,98.73
2022-11-25T01:14:21.357Z,98.28
2022-11-25T01:16:49.220Z,98.29
2022-11-25T01:19:17.790Z,99.00
2022-11-25T01:21:45.387Z,99.53
2022-11-25T01:24:16.940Z,99.07
2022-11-25T01:26:45.207Z,98.73
2022-11-25T01:29:15.780Z,99.25
2022-11-25T01:31:43.555Z,99.39
2022-11-25T01:34:15.283Z,99.62
2022-11-25T01:36:42.717Z,99.60
2022-11-25T01:39:17.238Z,100.00
2022-11-25T01:41:45.599Z,99.83
2022-11-25T01:44:23.836Z,99.95
2022-11-25T01:47:00.674Z,100.00
2022-11-25T01:49:38.071Z,99.59
2022-11-25T01:52:08.564Z,99.30
2022-11-25T01:54:42.572Z,98.85
2022-11-25T01:57:16.619Z,98.55
2022-11-25T01:59:49.593Z,97.99
2022-11-25T02:02:17.837Z,99.36
2022-11-25T02:04:47.627Z,99.45
2022-11-25T02:07:31.755Z,98.52
2022-11-25T02:10:00.529Z,99.30
2022-11-25T02:12:29.297Z,99.82
2022-11-25T02:14:59.602Z,99.30
2022-11-25T02:17:27.174Z,98.46
2022-11-25T02:20:11.037Z,98.30
2022-11-25T02:22:45.686Z,98.25
2022-11-25T02:25:28.403Z,97.85
2022-11-25T02:28:06.300Z,98.44
2022-11-25T02:30:34.264Z,97.63
2022-11-25T02:33:02.403Z,96.92
2022-11-25T02:35:33.216Z,96.92
2022-11-25T02:38:26.153Z,96.21
2022-11-25T02:41:03.826Z,96.40
2022-11-25T02:43:31.944Z,95.80
2022-11-25T02:46:08.030Z,96.23
2022-11-25T02:51:29.477Z,95.39
2022-11-25T02:53:59.118Z,95.64
2022-11-25T02:56:30.728Z,96.03
2022-11-25T02:58:59.426Z,95.64
2022-11-25T03:01:30.006Z,96.51
2022-11-25T03:03:57.936Z,96.68
2022-11-25T03:06:29.085Z,96.70
2022-11-25T03:08:57.019Z,96.73
2022-11-25T03:11:43.694Z,96.12
2022-11-25T03:14:11.543Z,96.11
2022-11-25T03:16:38.935Z,96.07
2022-11-25T03:19:06.464Z,96.35
2022-11-25T03:21:34.036Z,95.50
2022-11-25T03:24:01.823Z,96.05
2022-11-25T03:26:29.332Z,96.34
2022-11-25T03:28:56.772Z,97.31
2022-11-25T03:31:24.336Z,99.08
2022-11-25T03:33:51.841Z,97.76
2022-11-25T03:36:19.216Z,98.42
2022-11-25T03:38:48.211Z,97.33
2022-11-25T03:41:15.708Z,99.15
2022-11-25T03:43:43.118Z,98.94
2022-11-25T03:46:10.614Z,98.57
2022-11-25T03:48:38.249Z,98.45
2022-11-25T03:51:06.331Z,98.43
2022-11-25T03:53:35.098Z,99.05
2022-11-25T03:56:05.489Z,97.75
2022-11-25T03:58:32.959Z,98.21
2022-11-25T04:01:01.715Z,98.02
2022-11-25T04:03:30.807Z,97.31
2022-11-25T04:05:58.291Z,97.19
2022-11-25T04:08:25.753Z,98.50
2022-11-25T04:10:53.269Z,98.75
2022-11-25T04:13:24.841Z,98.47
2022-11-25T04:15:53.139Z,98.20
2022-11-25T04:18:21.625Z,98.23
2022-11-25T04:20:52.640Z,98.19
2022-11-25T04:23:20.282Z,96.63
2022-11-25T04:26:07.974Z,96.73
2022-11-25T04:28:39.710Z,97.71
2022-11-25T04:31:08.590Z,97.32
2022-11-25T04:33:39.014Z,95.87
2022-11-25T04:36:07.188Z,95.53
2022-11-25T04:38:34.608Z,95.84
2022-11-25T04:41:03.692Z,96.01
2022-11-25T04:43:36.307Z,96.62
2022-11-25T04:46:15.145Z,97.12
2022-11-25T04:48:46.088Z,97.25
2022-11-25T04:51:15.168Z,97.29
2022-11-25T04:53:44.065Z,97.62
2022-11-25T04:56:18.428Z,97.98
2022-11-25T04:59:05.453Z,97.42
2022-11-25T05:01:34.259Z,97.89
2022-11-25T05:04:11.489Z,97.33
2022-11-25T05:06:39.227Z,96.23
2022-11-25T05:09:07.748Z,96.22
2022-11-25T05:11:37.808Z,95.84
2022-11-25T05:14:05.785Z,96.69
2022-11-25T05:16:33.708Z,95.93
2022-11-25T05:19:01.433Z,95.99
2022-11-25T05:21:28.937Z,95.49
2022-11-25T05:23:56.432Z,96.53
2022-11-25T05:26:26.731Z,96.92
2022-11-25T05:28:57.540Z,97.74
2022-11-25T05:31:25.180Z,97.23
2022-11-25T05:33:54.031Z,96.89
2022-11-25T05:36:22.251Z,97.30
2022-11-25T05:38:50.383Z,97.16
2022-11-25T05:41:29.799Z,97.41
2022-11-25T05:43:57.396Z,96.89
2022-11-25T05:46:24.893Z,97.13
2022-11-25T05:48:56.740Z,97.23
2022-11-25T05:51:25.617Z,96.81
2022-11-25T05:53:55.687Z,96.37
2022-11-25T05:56:26.812Z,96.99
2022-11-25T05:58:55.084Z,96.75
2022-11-25T06:01:23.955Z,96.59
2022-11-25T06:03:51.797Z,97.31
2022-11-25T06:06:19.616Z,97.98
2022-11-25T06:08:47.354Z,97.20
2022-11-25T06:11:17.486Z,97.59
2022-11-25T06:13:45.600Z,95.24
2022-11-25T06:16:21.825Z,96.95
2022-11-25T06:18:53.973Z,97.55
2022-11-25T06:21:21.964Z,98.58
2022-11-25T06:23:49.628Z,98.07
2022-11-25T06:26:22.059Z,98.91
2022-11-25T06:28:54.406Z,98.41
2022-11-25T06:31:24.930Z,98.76
2022-11-25T06:34:08.455Z,98.48
2022-11-25T06:36:37.439Z,98.12
2022-11-25T06:39:04.933Z,98.45
2022-11-25T06:41:32.321Z,98.79
2022-11-25T06:43:59.726Z,98.88
2022-11-25T06:46:27.121Z,99.44
2022-11-25T06:48:54.519Z,98.97
2022-11-25T06:51:21.982Z,98.64
2022-11-25T06:53:49.431Z,98.75
2022-11-25T06:56:20.634Z,99.53
2022-11-25T06:58:49.254Z,99.72
2022-11-25T07:01:23.578Z,99.57
2022-11-25T07:03:56.872Z,98.91
2022-11-25T07:06:24.644Z,99.21
2022-11-25T07:08:52.247Z,99.20
2022-11-25T07:11:25.389Z,99.09
2022-11-25T07:14:13.408Z,99.73
2022-11-25T07:16:43.957Z,99.61
2022-11-25T07:19:13.993Z,100.00
2022-11-25T07:21:43.473Z,100.00
2022-11-25T07:24:15.047Z,99.08
2022-11-25T07:26:43.524Z,96.70
2022-11-25T07:29:36.438Z,96.64
2022-11-25T07:32:05.807Z,95.92
2022-11-25T07:34:36.411Z,95.15
2022-11-25T07:37:03.992Z,93.76
2022-11-25T07:39:31.574Z,93.23
2022-11-25T07:41:59.191Z,93.55
2022-11-25T07:44:26.716Z,93.43
2022-11-25T07:47:01.524Z,93.59
2022-11-25T07:49:29.121Z,93.01
2022-11-25T07:51:59.854Z,93.46
2022-11-25T07:54:27.356Z,93.40
2022-11-25T07:56:54.819Z,93.47
2022-11-25T07:59:23.554Z,93.49
2022-11-25T08:01:53.134Z,92.90
2022-11-25T08:04:21.271Z,93.66
2022-11-25T08:06:50.879Z,94.53
2022-11-25T08:09:23.839Z,94.09
2022-11-25T08:11:52.145Z,93.89
2022-11-25T08:14:20.341Z,93.71
2022-11-25T08:16:47.889Z,94.15
2022-11-25T08:19:17.506Z,94.10
2022-11-25T08:21:47.949Z,94.25
2022-11-25T08:24:17.673Z,94.25
2022-11-25T08:26:45.358Z,94.03
2022-11-25T08:29:18.335Z,93.51
2022-11-25T08:31:45.997Z,93.10
2022-11-25T08:34:19.990Z,93.06
2022-11-25T08:36:49.189Z,92.47
2022-11-25T08:39:44.329Z,92.23
2022-11-25T08:42:06.353Z,92.02
2022-11-25T08:44:34.454Z,91.28
2022-11-25T08:47:06.131Z,90.56
2022-11-25T08:49:39.115Z,90.38
2022-11-25T08:52:09.914Z,89.51
2022-11-25T08:54:38.422Z,88.42
2022-11-25T08:57:06.234Z,88.48
2022-11-25T08:59:33.730Z,87.17
2022-11-25T09:02:01.556Z,86.81
2022-11-25T09:04:29.377Z,86.83
2022-11-25T09:06:56.771Z,85.91
2022-11-25T09:09:24.233Z,85.22
2022-11-25T09:11:51.686Z,84.26
2022-11-25T09:14:18.993Z,82.82
2022-11-25T09:16:46.551Z,79.18
2022-11-25T09:19:13.890Z,80.95
2022-11-25T09:21:43.643Z,80.93
2022-11-25T09:24:11.130Z,80.85
2022-11-25T09:26:41.075Z,79.53
2022-11-25T09:29:08.583Z,77.35
2022-11-25T09:31:36.485Z,78.29
2022-11-25T09:34:04.014Z,78.81
2022-11-25T09:36:31.611Z,79.40
2022-11-25T09:38:58.992Z,78.74
2022-11-25T09:41:59.416Z,79.46
2022-11-25T09:45:00.911Z,77.25
2022-11-25T09:52:02.373Z,75.80
2022-11-25T09:54:44.473Z,73.50
2022-11-25T09:57:27.241Z,73.88
2022-11-25T10:00:11.273Z,74.58
2022-11-25T10:03:02.884Z,73.20
2022-11-25T10:05:47.413Z,73.50
2022-11-25T10:08:21.936Z,74.10
2022-11-25T10:10:55.405Z,74.47
2022-11-25T10:13:54.927Z,73.59
2022-11-25T10:16:41.173Z,72.76
2022-11-25T10:19:23.690Z,73.86
2022-11-25T10:21:52.214Z,74.14
2022-11-25T10:24:21.516Z,73.79
2022-11-25T10:26:55.956Z,74.08
2022-11-25T10:29:27.526Z,74.47
2022-11-25T10:32:25.704Z,73.95
2022-11-25T10:35:02.513Z,73.59
2022-11-25T10:37:44.208Z,73.69
2022-11-25T10:40:20.673Z,73.08
2022-11-25T10:42:48.207Z,72.21
2022-11-25T10:45:15.618Z,72.35
2022-11-25T10:48:23.243Z,73.55
2022-11-25T10:51:23.083Z,73.74
2022-11-25T10:54:09.499Z,74.58
2022-11-25T10:56:57.067Z,74.37
2022-11-25T10:59:32.020Z,75.12
2022-11-25T11:02:23.779Z,75.19
2022-11-25T11:05:08.761Z,75.09
2022-11-25T11:07:42.665Z,74.55
2022-11-25T11:10:26.557Z,73.96
2022-11-25T11:13:04.814Z,72.82
2022-11-25T11:15:47.219Z,73.61
2022-11-25T11:18:21.730Z,73.89
2022-11-25T11:20:53.197Z,74.61
2022-11-25T11:23:21.196Z,74.49
2022-11-25T11:25:57.106Z,75.44
2022-11-25T11:28:24.677Z,75.43
2022-11-25T11:31:07.899Z,75.70
2022-11-25T11:34:01.107Z,75.35
2022-11-25T11:36:52.607Z,75.68
2022-11-25T11:40:00.691Z,75.86
2022-11-25T11:42:59.002Z,74.74
2022-11-25T11:46:08.355Z,74.30
2022-11-25T11:48:57.587Z,74.62
2022-11-25T11:51:25.001Z,74.10
2022-11-25T11:54:32.997Z,74.92
2022-11-25T11:57:04.948Z,75.20
2022-11-25T11:59:56.412Z,75.59
2022-11-25T12:02:42.696Z,75.26
2022-11-25T12:05:10.174Z,73.70
2022-11-25T12:07:53.222Z,73.57
2022-11-25T12:10:52.401Z,73.68
2022-11-25T12:13:28.942Z,73.48
2022-11-25T12:16:16.614Z,74.01
2022-11-25T12:18:56.608Z,74.06
2022-11-25T12:21:42.122Z,74.29
2022-11-25T12:24:21.951Z,72.95
2022-11-25T12:26:57.964Z,72.52
2022-11-25T12:29:37.336Z,72.38
2022-11-25T12:32:33.692Z,72.72
2022-11-25T12:35:10.120Z,72.90
2022-11-25T12:38:18.765Z,71.73
2022-11-25T12:40:55.783Z,70.95
2022-11-25T12:43:34.585Z,71.61
2022-11-25T12:46:27.037Z,71.76
2022-11-25T12:48:58.269Z,72.21
2022-11-25T12:52:11.336Z,72.45
2022-11-25T12:55:13.522Z,72.11
2022-11-25T12:58:18.359Z,71.61
2022-11-25T13:01:02.109Z,72.30
2022-11-25T13:04:08.220Z,72.12
2022-11-25T13:06:38.930Z,70.43
2022-11-25T13:09:15.672Z,70.32
2022-11-25T13:12:02.366Z,69.22
2022-11-25T13:14:40.027Z,69.56
2022-11-25T13:17:12.226Z,69.91
2022-11-25T13:19:40.421Z,71.02
2022-11-25T13:22:29.992Z,70.42
2022-11-25T13:24:58.155Z,69.46
2022-11-25T13:27:35.994Z,69.68
2022-11-25T13:30:05.437Z,69.67
2022-11-25T13:32:36.716Z,67.50
2022-11-25T13:35:22.291Z,67.80
2022-11-25T13:37:50.955Z,68.38
2022-11-25T13:40:22.082Z,68.64
2022-11-25T13:42:51.679Z,68.92
2022-11-25T13:45:28.135Z,69.74
2022-11-25T13:48:04.099Z,68.93
2022-11-25T13:50:55.531Z,69.36
2022-11-25T13:53:27.611Z,69.42
2022-11-25T13:56:14.556Z,68.56
2022-11-25T13:59:10.792Z,69.08
2022-11-25T14:01:45.377Z,69.35
2022-11-25T14:04:14.718Z,69.69
2022-11-25T14:06:57.410Z,70.46
2022-11-25T14:09:43.738Z,70.84
2022-11-25T14:12:23.547Z,70.52
2022-11-25T14:15:29.149Z,71.45
2022-11-25T14:18:31.480Z,72.20
2022-11-25T14:21:28.917Z,72.67
2022-11-25T14:24:07.110Z,73.17
2022-11-25T14:26:49.878Z,73.72
2022-11-25T14:29:23.798Z,74.09
2022-11-25T14:31:55.893Z,74.67
2022-11-25T14:34:27.441Z,75.13
2022-11-25T14:37:00.983Z,75.68
2022-11-25T14:39:38.164Z,76.65
2022-11-25T14:42:10.876Z,76.49
2022-11-25T14:44:59.352Z,77.03
2022-11-25T14:47:29.534Z,77.10
2022-11-25T14:50:26.733Z,76.72
2022-11-25T14:52:48.516Z,77.02
2022-11-25T14:55:30.097Z,76.89
2022-11-25T14:57:57.609Z,77.05
2022-11-25T15:00:25.291Z,76.93
2022-11-25T15:02:57.735Z,77.18
2022-11-25T15:05:31.760Z,77.97
2022-11-25T15:08:10.349Z,77.28
2022-11-25T15:10:50.367Z,77.43
2022-11-25T15:13:44.912Z,77.83
2022-11-25T15:16:19.276Z,78.43
2022-11-25T15:18:57.285Z,78.14
2022-11-25T15:22:14.512Z,78.31
2022-11-25T15:24:36.761Z,77.78
2022-11-25T15:27:04.213Z,78.68
2022-11-25T15:29:41.293Z,79.11
2022-11-25T15:32:19.375Z,79.99
2022-11-25T15:34:47.942Z,80.30
2022-11-25T15:37:15.576Z,80.94
2022-11-25T15:39:43.159Z,80.71
2022-11-25T15:42:21.611Z,81.15
2022-11-25T15:44:57.546Z,81.56
2022-11-25T15:47:25.950Z,82.34
2022-11-25T15:50:20.827Z,82.53
2022-11-25T15:52:52.738Z,83.81
2022-11-25T15:55:39.001Z,84.55
2022-11-25T15:58:26.956Z,84.74
2022-11-25T16:01:03.317Z,84.63
2022-11-25T16:03:32.429Z,85.72
2022-11-25T16:06:01.172Z,85.60
2022-11-25T16:08:37.792Z,85.24
2022-11-25T16:11:18.785Z,85.57
2022-11-25T16:13:51.315Z,86.14
2022-11-25T16:16:28.679Z,86.63
2022-11-25T16:19:02.200Z,87.33
2022-11-25T16:21:40.449Z,87.48
2022-11-25T16:24:14.622Z,88.23
2022-11-25T16:27:02.441Z,88.63
2022-11-25T16:29:48.817Z,88.99
2022-11-25T16:32:20.386Z,88.57
2022-11-25T16:34:50.250Z,88.43
2022-11-25T16:37:19.223Z,87.97
2022-11-25T16:39:48.297Z,87.98
2022-11-25T16:42:21.948Z,87.83
2022-11-25T16:44:51.921Z,87.74
2022-11-25T16:47:22.178Z,88.17
2022-11-25T16:49:51.234Z,87.93
2022-11-25T16:52:19.532Z,87.66
2022-11-25T16:54:47.543Z,87.66
2022-11-25T16:57:22.131Z,88.07
2022-11-25T16:59:55.948Z,88.63
2022-11-25T17:02:26.519Z,89.07
2022-11-25T17:04:54.587Z,89.34
2022-11-25T17:07:38.741Z,89.53
2022-11-25T17:10:08.380Z,89.56
2022-11-25T17:12:39.991Z,89.23
2022-11-25T17:15:17.982Z,89.02
2022-11-25T17:17:48.063Z,89.48
2022-11-25T17:20:17.388Z,90.04
2022-11-25T17:22:45.037Z,91.06
2022-11-25T17:25:13.213Z,92.20
2022-11-25T17:27:42.367Z,92.40
2022-11-25T17:30:19.851Z,92.76
2022-11-25T17:32:48.335Z,92.11
2022-11-25T17:35:20.129Z,91.71
2022-11-25T17:37:48.124Z,92.10
2022-11-25T17:40:16.462Z,91.92
2022-11-25T17:42:46.117Z,92.27
2022-11-25T17:45:15.582Z,92.95
2022-11-25T17:47:43.935Z,92.76
2022-11-25T17:50:18.370Z,92.95
2022-11-25T17:52:45.928Z,94.25
2022-11-25T17:55:17.093Z,93.73
2022-11-25T17:57:44.597Z,94.10
2022-11-25T18:00:14.814Z,93.88
2022-11-25T18:02:42.318Z,93.38
2022-11-25T18:05:18.384Z,93.79
2022-11-25T18:07:46.821Z,94.68
2022-11-25T18:10:24.347Z,94.41
2022-11-25T18:12:54.126Z,94.35
2022-11-25T18:15:24.883Z,95.03
2022-11-25T18:17:59.658Z,94.55
2022-11-25T18:20:28.122Z,94.58
2022-11-25T18:22:55.546Z,94.17
2022-11-25T18:25:25.829Z,95.03
2022-11-25T18:27:56.323Z,94.68
2022-11-25T18:30:26.939Z,94.39
2022-11-25T18:32:56.261Z,93.96
2022-11-25T18:35:29.793Z,94.61
2022-11-25T18:38:00.221Z,94.61
2022-11-25T18:40:29.293Z,93.82
2022-11-25T18:43:00.331Z,93.65
2022-11-25T18:45:33.081Z,93.88
2022-11-25T18:48:00.573Z,94.13
2022-11-25T18:50:28.805Z,93.67
2022-11-25T18:52:56.186Z,93.29
2022-11-25T18:55:24.324Z,92.46
2022-11-25T18:57:52.410Z,91.41
2022-11-25T19:00:38.026Z,90.74
2022-11-25T19:03:13.460Z,90.30
2022-11-25T19:05:40.921Z,89.82
2022-11-25T19:08:08.386Z,90.73
2022-11-25T19:10:38.084Z,92.30
2022-11-25T19:13:31.772Z,93.87
2022-11-25T19:16:07.595Z,94.10
2022-11-25T19:18:35.642Z,94.50
2022-11-25T19:21:03.455Z,94.75
2022-11-25T19:23:30.892Z,94.77
2022-11-25T19:26:07.557Z,95.17
2022-11-25T19:28:35.300Z,95.45
2022-11-25T19:31:04.749Z,95.85
2022-11-25T19:33:38.973Z,96.05
2022-11-25T19:36:13.213Z,96.56
2022-11-25T19:38:40.627Z,97.07
2022-11-25T19:41:08.490Z,97.32
2022-11-25T19:43:35.871Z,97.08
2022-11-25T19:46:36.915Z,96.39
2022-11-25T19:49:17.227Z,95.83
2022-11-25T19:51:45.057Z,95.20
2022-11-25T19:54:18.949Z,94.58
2022-11-25T19:56:46.590Z,94.54
2022-11-25T19:59:14.030Z,94.56
2022-11-25T20:01:44.275Z,94.57
2022-11-25T20:04:22.187Z,94.60
2022-11-25T20:06:49.740Z,94.54
2022-11-25T20:09:17.203Z,94.43
2022-11-25T20:11:44.747Z,94.59
2022-11-25T20:14:12.461Z,94.41
2022-11-25T20:16:41.503Z,93.86
2022-11-25T20:19:17.748Z,93.13
2022-11-25T20:21:46.596Z,92.86
2022-11-25T20:24:18.719Z,93.38
2022-11-25T20:26:48.635Z,93.63
2022-11-25T20:29:19.439Z,93.10
2022-11-25T20:31:47.904Z,92.65
2022-11-25T20:34:15.762Z,93.23
2022-11-25T20:36:44.348Z,93.08
2022-11-25T20:39:17.809Z,93.41
2022-11-25T20:41:52.703Z,93.59
2022-11-25T20:44:21.018Z,93.36
2022-11-25T20:46:48.567Z,92.76
2022-11-25T20:49:27.480Z,91.68
2022-11-25T20:51:56.998Z,91.50
2022-11-25T20:54:24.809Z,91.34
2022-11-25T20:56:52.606Z,90.01
2022-11-25T20:59:23.463Z,89.54
2022-11-25T21:01:51.614Z,88.86
2022-11-25T21:04:19.403Z,88.83
2022-11-25T21:06:47.349Z,87.72
2022-11-25T21:09:28.857Z,87.93
2022-11-25T21:11:56.295Z,88.23
2022-11-25T21:14:23.745Z,88.25
2022-11-25T21:16:51.198Z,88.90
2022-11-25T21:19:18.756Z,89.23
2022-11-25T21:21:48.624Z,88.69
2022-11-25T21:24:30.561Z,87.08
2022-11-25T21:26:59.990Z,87.21
2022-11-25T21:29:28.302Z,87.36
2022-11-25T21:31:55.812Z,87.45
2022-11-25T21:34:23.430Z,87.67
2022-11-25T21:36:52.359Z,87.90
2022-11-25T21:39:34.017Z,88.43
2022-11-25T21:42:07.186Z,88.28
2022-11-25T21:44:38.352Z,88.17
2022-11-25T21:47:23.390Z,88.50
2022-11-25T21:49:51.811Z,89.46
2022-11-25T21:52:19.379Z,89.19
2022-11-25T21:54:47.452Z,89.16
2022-11-25T21:57:22.696Z,88.77
2022-11-25T21:59:50.200Z,88.16
2022-11-25T22:02:20.564Z,88.05
2022-11-25T22:04:48.505Z,87.05
2022-11-25T22:07:16.084Z,85.05
2022-11-25T22:09:43.999Z,84.62
2022-11-25T22:12:25.503Z,85.31
2022-11-25T22:14:53.479Z,85.28
2022-11-25T22:17:21.029Z,86.26
2022-11-25T22:19:48.577Z,86.41
2022-11-25T22:22:17.737Z,86.57
2022-11-25T22:24:45.749Z,86.82
2022-11-25T22:27:25.356Z,87.06
2022-11-25T22:29:54.297Z,86.85
2022-11-25T22:32:22.241Z,86.46
2022-11-25T22:34:49.667Z,86.03
2022-11-25T22:37:19.633Z,86.75
2022-11-25T22:39:47.547Z,87.19
2022-11-25T22:42:33.412Z,86.95
2022-11-25T22:45:03.634Z,86.52
2022-11-25T22:47:41.077Z,86.96
2022-11-25T22:50:22.555Z,86.62
2022-11-25T22:52:50.690Z,86.66
2022-11-25T22:55:21.843Z,87.15
2022-11-25T22:57:51.357Z,87.12
2022-11-25T23:00:25.872Z,86.32
2022-11-25T23:02:56.284Z,85.83
2022-11-25T23:05:33.018Z,86.03
2022-11-25T23:08:02.674Z,85.99
2022-11-25T23:10:31.781Z,86.23
2022-11-25T23:12:59.394Z,86.16
2022-11-25T23:15:26.873Z,86.82
2022-11-25T23:17:57.729Z,87.41
2022-11-25T23:20:37.346Z,88.24
2022-11-25T23:23:17.798Z,89.64
2022-11-25T23:25:45.748Z,90.59
2022-11-25T23:28:13.977Z,91.27
2022-11-25T23:30:53.925Z,91.55
2022-11-25T23:33:27.243Z,91.71
2022-11-25T23:35:55.385Z,91.64
2022-11-25T23:38:25.839Z,92.22
2022-11-25T23:40:53.414Z,92.06
2022-11-25T23:43:21.076Z,92.25
2022-11-25T23:45:54.551Z,92.59
2022-11-25T23:48:30.738Z,91.89
2022-11-25T23:51:00.335Z,90.90
2022-11-25T23:53:33.642Z,90.30
2022-11-25T23:56:01.185Z,90.09
2022-11-25T23:58:28.687Z,89.90
